Time;durP1;ratioP1;P1;durP2;ratioP2;P2;SDS_P1;SDS_P2;PMS_P1;PMS_P2;Temp;Humidity;BMP_temperature;BMP_pressure;BME280_temperature;BME280_humidity;BME280_pressure;Samples;Min_cycle;Max_cycle;Signal;HPM_P1;HPM_P2
2022/10/16 00:01:56;;;;;;;55.80;35.88;;;;;;;3.12;73.13;102128.89;1822487;78;20959;-88
2022/10/16 00:04:22;;;;;;;49.30;28.75;;;;;;;3.12;73.06;102128.89;1822457;78;20919;-87
2022/10/16 00:06:49;;;;;;;51.63;28.95;;;;;;;3.07;72.99;102132.80;1822391;78;20907;-89
2022/10/16 00:09:16;;;;;;;48.63;26.10;;;;;;;3.02;72.95;102128.49;1822364;78;20912;-88
2022/10/16 00:11:43;;;;;;;45.67;25.45;;;;;;;2.97;72.94;102128.95;1822338;78;20923;-88
2022/10/16 00:14:13;;;;;;;54.53;29.07;;;;;;;2.90;72.95;102126.38;1822369;78;20919;-88
2022/10/16 00:16:40;;;;;;;52.40;28.55;;;;;;;2.87;73.06;102132.88;1822338;78;21142;-88
2022/10/16 00:19:07;;;;;;;48.92;27.60;;;;;;;2.87;73.10;102133.32;1822254;78;21038;-88
2022/10/16 00:21:34;;;;;;;47.70;25.20;;;;;;;2.84;73.14;102135.91;1822352;78;20836;-89
2022/10/16 00:24:05;;;;;;;42.75;24.27;;;;;;;2.80;73.20;102135.07;1822489;78;20880;-88
2022/10/16 00:26:33;;;;;;;41.73;24.05;;;;;;;2.76;73.24;102141.53;1822421;78;20828;-89
2022/10/16 00:29:00;;;;;;;39.63;22.98;;;;;;;2.74;73.15;102144.59;1822560;78;21808;-88
2022/10/16 00:31:27;;;;;;;44.77;25.90;;;;;;;2.72;73.22;102143.73;1822490;78;20880;-88
2022/10/16 00:34:06;;;;;;;37.25;23.40;;;;;;;2.70;73.40;102139.84;1818325;77;20966;31
2022/10/16 00:36:34;;;;;;;37.75;23.98;;;;;;;2.68;73.65;102140.27;1679727;84;21105;-89
2022/10/16 00:39:02;;;;;;;59.33;38.15;;;;;;;2.68;73.67;102144.16;1678979;84;21412;-89
2022/10/16 00:41:29;;;;;;;101.75;67.58;;;;;;;2.65;73.76;102148.06;1679663;84;21272;-88
2022/10/16 00:44:00;;;;;;;53.30;31.27;;;;;;;2.63;73.77;102151.94;1678624;84;21384;-88
2022/10/16 00:46:38;;;;;;;36.42;24.72;;;;;;;2.63;73.76;102153.67;1662098;85;20919;-88
2022/10/16 00:49:18;;;;;;;40.63;21.48;;;;;;;2.63;73.95;102149.35;1677203;84;21412;-89
2022/10/16 00:51:50;;;;;;;31.75;19.20;;;;;;;2.66;74.19;102158.84;1677354;84;20935;-92
2022/10/16 00:54:29;;;;;;;32.23;18.32;;;;;;;2.68;74.41;102150.63;1677262;84;21876;-88
2022/10/16 00:56:58;;;;;;;27.52;17.52;;;;;;;2.72;74.55;102150.20;1677306;84;21041;-88
2022/10/16 00:59:33;;;;;;;34.70;20.50;;;;;;;2.77;74.81;102154.49;1677122;84;20982;-87
2022/10/16 01:02:00;;;;;;;31.50;19.30;;;;;;;2.79;74.89;102149.31;1677190;84;20947;-87
2022/10/16 01:04:26;;;;;;;31.65;18.65;;;;;;;2.81;74.43;102154.06;1677367;84;20943;-88
2022/10/16 01:07:17;;;;;;;27.27;18.65;;;;;;;2.79;74.15;102154.50;1677241;85;21135;-88
2022/10/16 01:10:09;;;;;;;31.90;18.85;;;;;;;2.76;73.84;102155.37;1676714;84;20891;-88
2022/10/16 01:12:55;;;;;;;31.35;17.02;;;;;;;2.72;73.49;102162.72;1676750;85;20993;-88
2022/10/16 01:15:37;;;;;;;30.80;18.10;;;;;;;2.66;73.32;102157.55;1676785;84;20879;-89
2022/10/16 01:18:25;;;;;;;35.68;16.77;;;;;;;2.61;73.22;102151.52;1676703;84;20943;-89
2022/10/16 01:21:12;;;;;;;33.13;16.90;;;;;;;2.58;73.25;102152.80;1678680;85;21837;-88
2022/10/16 01:24:12;;;;;;;27.37;17.55;;;;;;;2.57;73.37;102161.02;1676849;85;20990;-88
2022/10/16 01:27:06;;;;;;;33.48;19.30;;;;;;;2.56;73.46;102155.42;1676653;84;20951;-88
2022/10/16 01:30:09;;;;;;;32.93;19.82;;;;;;;2.57;73.46;102148.50;1655580;84;21392;-88
2022/10/16 01:32:48;;;;;;;37.23;22.50;;;;;;;2.56;73.45;102152.83;1652997;86;20994;-88
2022/10/16 01:35:27;;;;;;;31.27;22.32;;;;;;;2.55;73.50;102156.70;1642184;86;21195;-88
2022/10/16 01:38:14;;;;;;;32.58;21.17;;;;;;;2.52;73.41;102152.40;1643841;86;20954;-88
2022/10/16 01:40:48;;;;;;;30.45;17.82;;;;;;;2.48;73.38;102154.56;1643796;87;20951;-88
2022/10/16 01:43:19;;;;;;;31.57;20.02;;;;;;;2.44;73.26;102151.10;1643868;86;20912;-88
2022/10/16 01:45:47;;;;;;;26.65;17.05;;;;;;;2.41;73.34;102155.00;1643873;86;20939;-88
2022/10/16 01:48:17;;;;;;;28.90;17.23;;;;;;;2.39;73.42;102164.49;1644078;86;21883;-88
2022/10/16 01:50:57;;;;;;;28.15;18.55;;;;;;;2.39;73.48;102172.70;1643943;86;20927;-88
2022/10/16 01:53:23;;;;;;;27.98;17.55;;;;;;;2.39;73.55;102172.70;1643883;86;20959;-88
2022/10/16 01:55:50;;;;;;;28.25;18.20;;;;;;;2.39;73.66;102174.00;1644256;86;21388;-89
2022/10/16 01:58:18;;;;;;;27.22;18.57;;;;;;;2.39;73.78;102169.67;1625537;87;21435;-88
2022/10/16 02:00:47;;;;;;;34.23;20.70;;;;;;;2.40;73.80;102171.82;1644083;86;21278;-89
2022/10/16 02:03:17;;;;;;;34.03;17.70;;;;;;;2.36;73.74;102173.57;1645808;85;20884;-88
2022/10/16 02:05:51;;;;;;;33.88;18.12;;;;;;;2.34;73.60;102174.44;1645108;85;20906;-89
2022/10/16 02:08:19;;;;;;;30.80;18.23;;;;;;;2.30;73.61;102176.59;1644106;87;20958;-88
2022/10/16 02:10:45;;;;;;;28.35;18.85;;;;;;;2.25;73.61;102180.05;1643958;87;21455;-87
2022/10/16 02:13:30;;;;;;;31.90;17.92;;;;;;;2.24;73.61;102177.45;1643814;87;21256;-89
2022/10/16 02:15:57;;;;;;;33.67;17.37;;;;;;;2.22;73.68;102185.64;1643907;86;21517;-88
2022/10/16 02:18:29;;;;;;;28.45;17.75;;;;;;;2.21;73.63;102187.38;1644511;86;20951;-86
2022/10/16 02:21:01;;;;;;;28.65;17.67;;;;;;;2.22;73.62;102188.23;1644406;86;21055;-89
2022/10/16 02:24:06;;;;;;;34.25;21.27;;;;;;;2.21;73.71;102188.66;1641409;86;20961;-89
2022/10/16 02:26:51;;;;;;;24.10;16.97;;;;;;;2.21;73.82;102189.96;1632856;87;21259;-88
2022/10/16 02:29:23;;;;;;;27.05;17.65;;;;;;;2.21;73.89;102195.58;1636624;86;20908;-88
2022/10/16 02:31:54;;;;;;;28.25;16.07;;;;;;;2.20;74.05;102196.42;1643804;86;20950;-88
2022/10/16 02:34:21;;;;;;;23.35;15.78;;;;;;;2.18;74.19;102195.15;1643952;86;21022;-88
2022/10/16 02:36:48;;;;;;;25.15;16.62;;;;;;;2.18;74.28;102199.44;1657863;85;21420;-89
2022/10/16 02:39:15;;;;;;;24.70;16.80;;;;;;;2.16;74.37;102196.88;1643810;86;21198;-87
2022/10/16 02:41:42;;;;;;;23.45;15.03;;;;;;;2.19;74.42;102199.89;1660697;85;20900;-87
2022/10/16 02:44:09;;;;;;;26.35;16.07;;;;;;;2.19;74.39;102200.73;1615142;87;20970;-89
2022/10/16 02:46:36;;;;;;;30.08;17.48;;;;;;;2.21;74.42;102199.45;1663586;85;20888;-87
2022/10/16 02:49:03;;;;;;;25.12;16.75;;;;;;;2.21;74.28;102206.78;1660986;86;20939;-89
2022/10/16 02:51:30;;;;;;;30.02;17.82;;;;;;;2.18;73.91;102205.91;1660743;86;21153;-89
2022/10/16 02:53:57;;;;;;;27.77;17.10;;;;;;;2.15;73.56;102212.39;1643495;86;20939;-88
2022/10/16 02:56:23;;;;;;;30.75;17.25;;;;;;;2.11;73.36;102210.66;1660781;85;20899;-88
2022/10/16 02:58:50;;;;;;;26.73;15.43;;;;;;;2.08;73.32;102219.28;1643434;86;20997;-88
2022/10/16 03:01:17;;;;;;;23.67;16.25;;;;;;;2.04;73.36;102221.42;1660590;85;20971;-88
2022/10/16 03:03:43;;;;;;;24.43;15.03;;;;;;;1.98;73.35;102217.13;1660711;85;21143;-88
2022/10/16 03:06:10;;;;;;;24.45;16.05;;;;;;;1.92;73.30;102214.52;1632390;87;20947;-87
2022/10/16 03:08:38;;;;;;;26.97;16.15;;;;;;;1.88;73.56;102215.81;1660621;85;20952;-88
2022/10/16 03:11:05;;;;;;;25.43;15.43;;;;;;;1.83;73.94;102219.25;1660884;85;20947;-89
2022/10/16 03:13:32;;;;;;;30.17;16.62;;;;;;;1.84;74.25;102221.39;1643643;86;21381;-88
2022/10/16 03:15:58;;;;;;;31.48;16.40;;;;;;;1.85;74.27;102225.72;1660987;85;21342;-88
2022/10/16 03:18:27;;;;;;;24.10;16.12;;;;;;;1.83;74.28;102224.42;1660915;85;21421;-87
2022/10/16 03:20:53;;;;;;;29.18;16.10;;;;;;;1.80;74.15;102219.25;1660507;85;20915;-89
2022/10/16 03:23:21;;;;;;;30.12;16.17;;;;;;;1.76;74.01;102219.25;1660570;85;20923;-88
2022/10/16 03:25:47;;;;;;;26.15;15.70;;;;;;;1.72;74.07;102214.92;1660674;86;20964;-88
2022/10/16 03:28:14;;;;;;;30.50;16.45;;;;;;;1.67;74.21;102214.91;1662332;85;21177;-88
2022/10/16 03:30:42;;;;;;;28.02;16.82;;;;;;;1.64;74.30;102214.44;1662290;85;21034;-89
2022/10/16 03:33:09;;;;;;;32.42;17.23;;;;;;;1.63;74.48;102211.88;1638244;86;21488;-90
2022/10/16 03:35:36;;;;;;;29.23;16.97;;;;;;;1.64;74.36;102210.56;1656632;85;20922;-90
2022/10/16 03:38:03;;;;;;;35.15;17.92;;;;;;;1.65;74.25;102204.55;1644124;85;21417;-89
2022/10/16 03:40:31;;;;;;;30.45;16.57;;;;;;;1.67;74.06;102207.15;1643954;86;21161;-88
2022/10/16 03:42:58;;;;;;;34.13;16.93;;;;;;;1.69;73.78;102212.30;1643758;86;21072;-89
2022/10/16 03:45:26;;;;;;;27.27;16.52;;;;;;;1.66;73.66;102207.55;1644080;87;21401;-90
2022/10/16 03:47:53;;;;;;;25.40;15.08;;;;;;;1.66;73.66;102208.84;1646233;85;20891;-90
2022/10/16 03:50:19;;;;;;;25.85;15.30;;;;;;;1.66;73.83;102210.58;1646814;85;20931;-89
2022/10/16 03:52:47;;;;;;;25.20;15.32;;;;;;;1.66;73.92;102210.14;1647019;85;21100;-90
2022/10/16 03:55:13;;;;;;;27.25;16.77;;;;;;;1.68;73.91;102206.72;1645591;85;20957;-89
2022/10/16 03:57:40;;;;;;;38.98;22.27;;;;;;;1.69;73.82;102206.73;1644086;87;20925;-89
2022/10/16 04:00:09;;;;;;;37.90;20.90;;;;;;;1.70;73.94;102211.47;1643916;85;20977;-90
2022/10/16 04:02:38;;;;;;;29.75;16.55;;;;;;;1.71;73.95;102213.17;1643909;86;20953;-91
2022/10/16 04:05:05;;;;;;;29.40;17.27;;;;;;;1.73;74.01;102215.34;1643777;87;21257;-90
2022/10/16 04:07:32;;;;;;;30.95;15.48;;;;;;;1.71;73.95;102211.45;1643881;86;20958;-89
2022/10/16 04:09:58;;;;;;;26.07;15.78;;;;;;;1.72;73.86;102216.21;1647784;85;20950;-90
2022/10/16 04:12:28;;;;;;;23.50;14.10;;;;;;;1.72;74.01;102217.50;1646337;85;20906;-90
2022/10/16 04:14:54;;;;;;;25.08;17.05;;;;;;;1.73;74.21;102221.80;1643845;86;20906;-89
2022/10/16 04:17:22;;;;;;;22.93;13.25;;;;;;;1.75;74.24;102226.55;1643708;86;21222;-89
2022/10/16 04:19:48;;;;;;;21.40;14.83;;;;;;;1.76;74.21;102225.27;1643725;87;20950;-89
2022/10/16 04:22:15;;;;;;;21.52;15.38;;;;;;;1.79;74.13;102232.17;1643909;86;21380;-91
2022/10/16 04:24:41;;;;;;;24.37;15.10;;;;;;;1.79;73.90;102225.27;1643824;86;20950;-89
2022/10/16 04:27:08;;;;;;;20.70;13.20;;;;;;;1.78;73.75;102226.14;1643881;87;20954;-90
2022/10/16 04:29:34;;;;;;;22.07;14.90;;;;;;;1.75;73.83;102232.58;1649190;85;21169;-89
2022/10/16 04:32:01;;;;;;;21.27;14.28;;;;;;;1.73;73.90;102229.13;1645401;86;20898;-91
2022/10/16 04:34:27;;;;;;;25.68;14.30;;;;;;;1.72;73.81;102233.87;1643997;85;20969;-90
2022/10/16 04:36:54;;;;;;;25.60;14.78;;;;;;;1.72;73.82;102230.00;1643995;86;21384;-89
2022/10/16 04:39:21;;;;;;;25.30;15.50;;;;;;;1.75;73.70;102234.31;1644301;86;20867;-89
2022/10/16 04:41:48;;;;;;;24.43;15.40;;;;;;;1.76;73.66;102234.77;1644416;86;21145;-88
2022/10/16 04:44:15;;;;;;;24.67;15.28;;;;;;;1.77;73.62;102244.23;1644330;87;20914;-91
2022/10/16 04:46:41;;;;;;;64.40;26.45;;;;;;;1.78;73.70;102241.66;1644086;86;20910;-90
2022/10/16 04:49:08;;;;;;;88.78;39.70;;;;;;;1.81;73.86;102246.83;1644005;87;21001;-90
2022/10/16 04:51:35;;;;;;;46.68;21.50;;;;;;;1.83;73.96;102245.55;1644003;86;21041;-91
2022/10/16 04:54:02;;;;;;;26.25;15.85;;;;;;;1.86;74.09;102255.89;1646288;86;21236;-88
2022/10/16 04:56:28;;;;;;;30.32;17.85;;;;;;;1.90;74.01;102262.80;1627634;86;21245;-90
2022/10/16 04:58:56;;;;;;;25.65;17.70;;;;;;;1.95;73.95;102258.93;1646609;87;20985;-89
2022/10/16 05:01:22;;;;;;;94.77;59.95;;;;;;;1.97;73.83;102259.80;1646602;87;20923;-88
2022/10/16 05:03:50;;;;;;;120.40;83.37;;;;;;;2.01;73.67;102266.71;1645905;86;20949;-89
2022/10/16 05:06:19;;;;;;;74.58;52.13;;;;;;;2.05;73.56;102271.04;1645880;87;21232;-91
2022/10/16 05:08:46;;;;;;;79.82;51.92;;;;;;;2.08;73.58;102273.63;1644054;86;21021;-90
2022/10/16 05:11:13;;;;;;;30.00;22.77;;;;;;;2.13;73.78;102270.60;1643951;87;20874;-89
2022/10/16 05:13:39;;;;;;;27.25;18.23;;;;;;;2.23;73.96;102277.97;1643947;85;20978;-90
2022/10/16 05:16:06;;;;;;;37.83;25.62;;;;;;;2.33;74.09;102283.56;1644120;86;21033;-90
2022/10/16 05:18:35;;;;;;;51.15;35.15;;;;;;;2.45;74.20;102282.73;1644651;85;21378;-91
2022/10/16 05:21:01;;;;;;;46.68;32.15;;;;;;;2.56;74.20;102289.22;1644140;85;20938;-91
2022/10/16 05:23:28;;;;;;;38.10;29.42;;;;;;;2.65;74.08;102286.63;1644050;87;20954;-91
2022/10/16 05:25:58;;;;;;;43.92;30.85;;;;;;;2.74;74.00;102289.20;1644371;86;20997;-89
2022/10/16 05:28:26;;;;;;;40.75;27.55;;;;;;;2.86;74.02;102285.73;1645936;85;20954;-90
2022/10/16 05:30:52;;;;;;;32.90;24.67;;;;;;;3.00;74.16;102287.89;1625459;87;21492;-91
2022/10/16 05:33:24;;;;;;;17.15;11.68;;;;;;;3.13;74.08;102291.73;1646235;85;20934;-89
2022/10/16 05:35:51;;;;;;;11.68;7.90;;;;;;;3.34;74.44;102295.59;1646180;84;20910;-90
2022/10/16 05:38:18;;;;;;;12.75;8.65;;;;;;;3.95;76.45;102291.42;1643508;85;21041;-90
2022/10/16 05:40:52;;;;;;;11.00;7.20;;;;;;;4.95;77.22;102304.11;1643341;85;21029;-90
2022/10/16 05:43:19;;;;;;;10.53;7.40;;;;;;;6.07;75.97;102298.94;1643770;85;21768;-88
2022/10/16 05:45:59;;;;;;;10.15;7.45;;;;;;;7.31;73.14;102301.65;1643627;85;20914;-91
2022/10/16 05:48:26;;;;;;;10.43;6.50;;;;;;;8.40;69.82;102297.58;1643295;85;20942;-88
2022/10/16 05:51:05;;;;;;;8.08;6.65;;;;;;;9.49;66.12;102295.17;1643593;85;21151;-90
2022/10/16 05:53:33;;;;;;;10.80;5.90;;;;;;;10.42;62.83;102298.06;1643183;85;21012;-91
2022/10/16 05:56:00;;;;;;;7.08;6.37;;;;;;;11.31;59.17;102301.58;1619643;85;21242;-91
2022/10/16 05:58:29;;;;;;;8.38;6.37;;;;;;;12.03;56.75;102300.70;1643584;85;20934;-92
2022/10/16 06:01:02;;;;;;;7.65;5.95;;;;;;;12.71;54.41;102309.34;1643288;85;21085;-90
2022/10/16 06:03:29;;;;;;;7.78;6.08;;;;;;;13.38;52.32;102312.64;1641270;87;20962;-91
2022/10/16 06:05:55;;;;;;;7.08;6.03;;;;;;;13.98;51.27;102309.91;1642246;87;20867;-90
2022/10/16 06:08:23;;;;;;;11.55;6.50;;;;;;;14.49;50.02;102314.44;1641790;86;21160;-92
2022/10/16 06:11:05;;;;;;;8.13;5.45;;;;;;;15.34;46.71;102328.69;1641586;86;20878;-88
2022/10/16 06:13:31;;;;;;;9.85;5.47;;;;;;;15.34;46.71;102328.69;1641467;86;20909;-89
2022/10/16 06:16:00;;;;;;;8.58;6.33;;;;;;;15.70;45.41;102327.66;1641319;87;21376;-91
2022/10/16 06:18:31;;;;;;;9.80;6.53;;;;;;;16.10;44.62;102332.11;1641765;87;20958;-91
2022/10/16 06:20:58;;;;;;;7.37;6.53;;;;;;;16.47;43.89;102331.33;1642826;85;21958;-89
2022/10/16 06:23:24;;;;;;;9.95;7.15;;;;;;;16.51;43.39;102334.19;1641084;86;20914;-90
2022/10/16 06:25:51;;;;;;;7.05;6.28;;;;;;;16.13;43.16;102331.92;1641124;86;21472;-89
2022/10/16 06:28:17;;;;;;;12.45;7.35;;;;;;;15.45;43.05;102330.73;1641121;86;20954;-89
2022/10/16 06:30:45;;;;;;;10.60;6.50;;;;;;;14.76;44.14;102331.19;1641728;87;20970;-91
2022/10/16 06:33:12;;;;;;;8.83;6.42;;;;;;;14.13;44.64;102327.64;1641672;87;21278;-89
2022/10/16 06:35:40;;;;;;;10.85;7.22;;;;;;;13.45;46.71;102328.56;1641509;86;21527;-90
2022/10/16 06:38:07;;;;;;;8.55;6.80;;;;;;;12.96;46.92;102327.61;1641358;84;21029;-89
2022/10/16 06:40:35;;;;;;;9.50;7.53;;;;;;;12.55;48.76;102324.06;1617814;86;20870;-91
2022/10/16 06:43:04;;;;;;;12.15;7.95;;;;;;;12.18;49.08;102324.20;1641960;86;20895;-90
2022/10/16 06:45:32;;;;;;;9.95;7.45;;;;;;;11.90;49.79;102323.12;1642133;86;21337;-91
2022/10/16 06:48:00;;;;;;;11.75;7.05;;;;;;;11.63;50.17;102321.91;1641505;86;20946;-91
2022/10/16 06:50:32;;;;;;;10.08;7.03;;;;;;;11.37;50.93;102324.16;1641547;86;20982;-90
2022/10/16 06:52:58;;;;;;;11.00;7.53;;;;;;;11.10;51.16;102316.34;1641443;86;20927;-90
2022/10/16 06:55:25;;;;;;;12.58;7.80;;;;;;;10.84;51.59;102324.26;1642915;87;20914;-91
2022/10/16 06:57:55;;;;;;;8.88;7.50;;;;;;;10.58;52.38;102322.03;1643075;85;21160;-91
2022/10/16 07:00:24;;;;;;;11.88;7.58;;;;;;;10.41;53.37;102324.36;1643945;85;21017;-90
2022/10/16 07:02:50;;;;;;;13.32;8.38;;;;;;;10.26;53.72;102319.95;1644182;85;20851;-89
2022/10/16 07:05:18;;;;;;;12.45;7.58;;;;;;;10.11;54.21;102321.28;1644077;85;20926;-91
2022/10/16 07:07:49;;;;;;;17.15;8.63;;;;;;;10.02;54.74;102322.02;1643828;85;20923;-90
2022/10/16 07:10:16;;;;;;;10.28;8.15;;;;;;;9.95;55.38;102325.28;1643888;85;21519;-91
2022/10/16 07:12:44;;;;;;;36.70;21.30;;;;;;;9.84;55.59;102322.98;1644173;85;20851;-89
2022/10/16 07:15:12;;;;;;;12.05;8.63;;;;;;;9.74;55.87;102325.48;1643980;85;20851;-90
2022/10/16 07:17:40;;;;;;;13.50;8.48;;;;;;;9.67;56.26;102327.84;1643927;85;20895;-89
2022/10/16 07:20:10;;;;;;;11.60;7.55;;;;;;;9.58;56.18;102328.11;1643485;85;20965;-88
2022/10/16 07:22:37;;;;;;;9.45;7.10;;;;;;;9.48;56.43;102330.98;1643135;85;21243;-88
2022/10/16 07:25:11;;;;;;;11.35;7.55;;;;;;;9.42;57.21;102321.98;1643439;85;21037;-88
2022/10/16 07:27:35;;;;;;;11.38;8.30;;;;;;;9.38;57.50;102331.28;1642833;85;20859;-89
2022/10/16 07:30:03;;;;;;;9.38;7.00;;;;;;;9.40;57.95;102338.19;1643705;85;20915;-90
2022/10/16 07:32:34;;;;;;;12.40;7.30;;;;;;;9.64;58.73;102339.73;1642696;86;21319;-90
2022/10/16 07:35:01;;;;;;;9.18;6.75;;;;;;;10.29;58.57;102338.70;1641749;87;21232;-89
2022/10/16 07:37:28;;;;;;;16.70;7.80;;;;;;;11.24;57.28;102341.27;1641793;86;21372;-90
2022/10/16 07:39:55;;;;;;;10.68;7.47;;;;;;;12.31;54.68;102335.96;1641754;86;20898;-89
2022/10/16 07:42:24;;;;;;;12.63;6.80;;;;;;;13.39;51.65;102338.09;1641774;86;21404;-89
2022/10/16 07:44:51;;;;;;;9.88;7.95;;;;;;;14.42;48.30;102338.59;1642738;87;20947;-87
2022/10/16 07:47:18;;;;;;;12.25;7.70;;;;;;;15.33;45.89;102346.80;1642707;85;21234;-89
2022/10/16 07:49:45;;;;;;;11.43;6.87;;;;;;;16.11;44.71;102339.94;1641721;86;20946;-88
2022/10/16 07:52:11;;;;;;;12.30;7.78;;;;;;;16.86;43.07;102341.44;1641820;86;20888;-89
2022/10/16 07:54:39;;;;;;;11.68;7.35;;;;;;;17.51;41.72;102337.06;1641783;86;21032;-88
2022/10/16 07:57:06;;;;;;;9.28;6.87;;;;;;;18.12;40.32;102332.83;1641801;86;21027;-91
2022/10/16 07:59:35;;;;;;;11.80;7.35;;;;;;;18.71;39.18;102326.72;1642126;86;21154;-88
2022/10/16 08:02:04;;;;;;;11.50;7.08;;;;;;;19.28;37.83;102330.02;1642206;86;21348;-89
2022/10/16 08:04:33;;;;;;;7.87;6.30;;;;;;;19.77;37.08;102330.08;1641958;86;20855;-89
2022/10/16 08:07:03;;;;;;;6.67;5.75;;;;;;;20.24;36.51;102330.25;1642077;86;20962;-91
2022/10/16 08:09:32;;;;;;;7.05;6.20;;;;;;;20.69;35.27;102327.30;1641668;86;20863;-86
2022/10/16 08:12:00;;;;;;;9.13;6.53;;;;;;;21.07;34.34;102325.34;1641874;87;21412;-89
2022/10/16 08:14:30;;;;;;;7.95;6.12;;;;;;;21.37;34.15;102321.27;1618176;86;21452;-88
2022/10/16 08:16:57;;;;;;;9.18;6.33;;;;;;;21.72;33.42;102320.67;1642638;86;21025;-89
2022/10/16 08:19:24;;;;;;;8.95;5.75;;;;;;;22.06;32.90;102320.59;1642430;86;21467;-88
2022/10/16 08:21:53;;;;;;;6.20;5.60;;;;;;;22.36;32.45;102321.73;1641906;86;21312;-88
2022/10/16 08:24:20;;;;;;;6.60;5.85;;;;;;;22.53;31.94;102322.52;1642128;86;21247;-88
2022/10/16 08:26:47;;;;;;;9.68;5.75;;;;;;;22.63;31.68;102317.73;1641988;86;20997;-89
2022/10/16 08:29:14;;;;;;;6.05;5.40;;;;;;;22.86;30.94;102321.98;1643426;85;20914;-89
2022/10/16 08:31:45;;;;;;;5.78;5.05;;;;;;;23.15;30.49;102314.65;1641822;86;20915;-88
2022/10/16 08:34:12;;;;;;;10.25;7.37;;;;;;;23.56;30.02;102317.70;1618016;86;21530;-89
2022/10/16 08:36:38;;;;;;;7.85;5.80;;;;;;;23.83;29.43;102315.41;1641652;86;21138;-90
2022/10/16 08:39:07;;;;;;;8.00;4.90;;;;;;;24.05;29.29;102314.33;1644509;86;21051;-91
2022/10/16 08:42:04;;;;;;;7.40;5.28;;;;;;;24.20;28.97;102315.11;1644832;87;20962;-89
2022/10/16 08:44:43;;;;;;;5.60;5.10;;;;;;;24.49;28.60;102316.15;1644813;86;20954;-88
2022/10/16 08:47:25;;;;;;;7.97;4.72;;;;;;;24.72;28.01;102311.31;1644776;86;20994;-90
2022/10/16 08:50:01;;;;;;;6.78;3.70;;;;;;;24.82;27.64;102299.58;1625795;87;21460;-89
2022/10/16 08:52:35;;;;;;;3.58;3.22;;;;;;;25.08;26.96;102300.30;1644758;86;20918;-87
2022/10/16 08:55:01;;;;;;;5.55;2.87;;;;;;;25.16;26.96;102300.89;1644498;86;21021;-89
2022/10/16 08:57:31;;;;;;;4.33;3.33;;;;;;;25.20;26.48;102295.11;1644878;86;21427;-88
2022/10/16 09:00:01;;;;;;;3.50;2.70;;;;;;;25.24;26.25;102291.64;1626352;87;21025;-88
2022/10/16 09:02:47;;;;;;;2.98;2.25;;;;;;;25.17;26.32;102297.23;1644776;87;22068;-89
2022/10/16 09:06:00;;;;;;;2.72;2.50;;;;;;;25.09;26.71;102293.92;1644581;85;20883;-88
2022/10/16 09:08:35;;;;;;;2.92;2.62;;;;;;;25.15;26.62;102294.69;1644542;86;21046;-88
2022/10/16 09:11:14;;;;;;;2.42;2.12;;;;;;;25.20;26.29;102284.88;1638484;87;20931;-85
2022/10/16 09:14:02;;;;;;;4.53;2.17;;;;;;;25.24;26.45;102280.91;1607892;85;20958;-88
2022/10/16 09:16:35;;;;;;;2.40;2.20;;;;;;;25.12;26.50;102278.84;1637320;86;21156;-88
2022/10/16 09:19:17;;;;;;;3.62;2.65;;;;;;;24.99;26.33;102272.96;1626280;87;20926;-88
2022/10/16 09:21:47;;;;;;;5.12;2.67;;;;;;;24.77;26.47;102277.70;1637340;86;20923;-88
2022/10/16 09:24:18;;;;;;;5.25;2.25;;;;;;;24.71;26.91;102278.78;1644618;85;20966;-89
2022/10/16 09:26:47;;;;;;;3.62;3.02;;;;;;;24.70;26.76;102275.73;1637012;86;21420;-88
2022/10/16 09:29:15;;;;;;;4.90;2.40;;;;;;;24.63;26.42;102279.48;1644571;86;21144;-88
2022/10/16 09:31:44;;;;;;;2.87;2.50;;;;;;;24.68;26.84;102277.23;1644330;86;21413;-88
2022/10/16 09:34:19;;;;;;;3.52;3.22;;;;;;;24.77;26.46;102272.84;1644535;86;20978;-87
2022/10/16 09:36:47;;;;;;;4.50;2.50;;;;;;;24.80;26.41;102272.03;1653312;86;21002;-88
2022/10/16 09:39:15;;;;;;;7.37;4.37;;;;;;;24.68;26.46;102267.84;1670030;83;20910;-87
2022/10/16 09:41:44;;;;;;;6.55;5.12;;;;;;;24.61;26.59;102267.58;1629600;87;21894;-88
2022/10/16 09:44:30;;;;;;;5.05;3.30;;;;;;;24.57;26.15;102268.84;1644116;86;20958;-87
2022/10/16 09:47:20;;;;;;;5.67;3.15;;;;;;;24.51;26.04;102269.92;1668942;84;20994;-89
2022/10/16 09:50:05;;;;;;;6.33;2.27;;;;;;;24.33;26.17;102263.90;1643506;86;20946;-88
2022/10/16 09:52:34;;;;;;;3.72;2.37;;;;;;;24.26;25.99;102268.64;1633856;86;20969;-88
2022/10/16 09:55:16;;;;;;;3.27;2.58;;;;;;;24.25;26.30;102266.94;1635458;86;21376;-88
2022/10/16 09:57:53;;;;;;;3.92;2.20;;;;;;;24.33;26.33;102264.40;1633869;86;20957;-87
2022/10/16 10:00:23;;;;;;;2.55;2.30;;;;;;;24.61;26.27;102265.36;1634099;86;21013;-88
2022/10/16 10:02:52;;;;;;;2.67;1.87;;;;;;;24.78;25.88;102261.10;1634312;86;21095;-87
2022/10/16 10:05:25;;;;;;;4.87;2.17;;;;;;;24.93;25.30;102262.33;1633957;86;20965;-87
2022/10/16 10:07:58;;;;;;;3.05;2.27;;;;;;;25.00;25.45;102255.88;1633756;86;21157;-87
2022/10/16 10:10:29;;;;;;;2.87;2.17;;;;;;;25.03;25.15;102247.52;1635236;85;21033;-87
2022/10/16 10:12:56;;;;;;;2.67;2.08;;;;;;;25.06;25.43;102249.06;1636237;85;20892;-88
2022/10/16 10:15:23;;;;;;;4.35;2.37;;;;;;;25.20;25.18;102246.78;1635318;87;20906;-88
2022/10/16 10:17:55;;;;;;;4.47;2.65;;;;;;;25.37;25.10;102241.62;1636150;85;20914;-88
2022/10/16 10:20:38;;;;;;;7.08;3.10;;;;;;;25.55;25.39;102239.81;1634909;86;21563;-88
2022/10/16 10:23:23;;;;;;;3.83;2.42;;;;;;;25.86;24.98;102230.05;1633708;86;21411;-89
2022/10/16 10:25:55;;;;;;;2.37;2.17;;;;;;;26.13;24.66;102231.84;1633759;86;21037;-87
2022/10/16 10:28:49;;;;;;;6.12;2.62;;;;;;;26.26;24.48;102227.41;1634331;86;20941;-87
2022/10/16 10:31:24;;;;;;;5.55;2.25;;;;;;;26.44;24.22;102221.48;1669370;85;26698;-89
2022/10/16 10:34:42;;;;;;;2.47;2.27;;;;;;;26.50;24.22;102219.99;1668179;86;21211;-88
2022/10/16 10:37:33;;;;;;;6.42;2.58;;;;;;;26.53;24.13;102217.52;1669770;85;20958;-86
2022/10/16 10:40:27;;;;;;;3.77;2.35;;;;;;;26.12;23.90;102218.53;1668488;84;20931;-87
2022/10/16 10:43:19;;;;;;;5.17;2.90;;;;;;;25.44;24.28;102216.69;1644003;85;20991;-89
2022/10/16 10:45:48;;;;;;;3.08;2.72;;;;;;;24.92;24.56;102219.52;1648993;87;21014;-88
2022/10/16 10:48:26;;;;;;;5.37;4.22;;;;;;;24.61;25.44;102218.41;1668551;85;21236;-89
2022/10/16 10:51:10;;;;;;;5.90;2.45;;;;;;;24.30;25.44;102214.59;1665803;85;21345;-88
2022/10/16 10:54:06;;;;;;;3.70;2.47;;;;;;;23.98;26.06;102214.88;1666768;85;21022;-89
2022/10/16 10:56:59;;;;;;;8.05;2.40;;;;;;;23.59;26.37;102212.98;1649209;87;21434;-91
2022/10/16 10:59:53;;;;;;;4.95;2.27;;;;;;;23.07;26.75;102216.78;1668610;85;20970;-87
2022/10/16 11:02:46;;;;;;;12.03;5.40;;;;;;;22.59;27.34;102217.34;1669125;86;21142;-87
2022/10/16 11:05:50;;;;;;;4.35;2.12;;;;;;;22.08;27.36;102209.59;1666780;85;20935;-88
2022/10/16 11:08:38;;;;;;;5.22;2.47;;;;;;;21.63;28.42;102214.61;1665984;84;20962;-87
2022/10/16 11:11:25;;;;;;;3.42;2.30;;;;;;;21.10;29.11;102208.58;1668391;85;20883;-92
2022/10/16 11:14:08;;;;;;;4.95;2.20;;;;;;;20.70;29.33;102214.88;1667955;86;20940;-89
2022/10/16 11:16:45;;;;;;;3.83;2.20;;;;;;;20.12;29.99;102208.15;1646778;86;22338;-87
2022/10/16 11:19:21;;;;;;;5.00;3.08;;;;;;;19.64;30.94;102204.97;1639047;87;21460;-86
2022/10/16 11:21:56;;;;;;;4.67;2.33;;;;;;;19.35;31.72;102197.78;1668281;86;20971;-86
2022/10/16 11:24:37;;;;;;;5.83;2.55;;;;;;;19.10;32.23;102201.80;1667985;85;20907;-87
2022/10/16 11:27:08;;;;;;;2.62;2.05;;;;;;;18.84;32.57;102198.70;1651231;86;21495;-88
2022/10/16 11:29:35;;;;;;;7.53;2.83;;;;;;;18.62;32.83;102191.82;1667624;86;21217;-88
2022/10/16 11:32:15;;;;;;;2.95;2.47;;;;;;;18.43;33.21;102194.42;1644500;84;20954;-89
2022/10/16 11:34:47;;;;;;;4.58;3.15;;;;;;;18.30;33.79;102196.69;1653187;86;20872;-87
2022/10/16 11:37:36;;;;;;;3.33;2.40;;;;;;;18.08;34.25;102198.60;1652654;86;21090;-87
2022/10/16 11:40:12;;;;;;;6.40;2.75;;;;;;;17.84;34.58;102204.56;1695707;84;20899;-89
2022/10/16 11:42:46;;;;;;;2.47;2.35;;;;;;;17.62;35.04;102201.09;1690480;83;21179;-87
2022/10/16 11:45:33;;;;;;;4.28;2.67;;;;;;;17.48;35.51;102201.14;1670965;86;20944;-87